Time;durP1;ratioP1;P1;durP2;ratioP2;P2;SDS_P1;SDS_P2;PMS_P1;PMS_P2;Temp;Humidity;BMP_temperature;BMP_pressure;BME280_temperature;BME280_humidity;BME280_pressure;Samples;Min_cycle;Max_cycle;Signal;HPM_P1;HPM_P2
2022/10/20 00:01:20;;;;;;;124.97;52.47;;;;;;;;;;5072703;28;20079;-73
2022/10/20 00:03:46;;;;;;;52.05;25.65;;;;;;;;;;5072974;28;20027;-71
2022/10/20 00:06:20;;;;;;;61.25;30.52;;;;;;;;;;5072485;28;20029;-71
2022/10/20 00:08:46;;;;;;;25.58;15.77;;;;;;;;;;5072617;28;20036;-72
2022/10/20 00:11:14;;;;;;;56.85;31.85;;;;;;;;;;5072762;28;20103;-70
2022/10/20 00:13:41;;;;;;;67.95;41.17;;;;;;;;;;5072899;28;20433;-72
2022/10/20 00:16:07;;;;;;;107.53;60.78;;;;;;;;;;5072718;28;20048;-70
2022/10/20 00:18:33;;;;;;;28.75;19.60;;;;;;;;;;5072621;28;20024;-70
2022/10/20 00:20:59;;;;;;;27.13;18.30;;;;;;;;;;5054605;28;20539;-70
2022/10/20 00:23:25;;;;;;;55.33;32.65;;;;;;;;;;5072547;28;20021;-71
2022/10/20 00:26:10;;;;;;;60.83;35.15;;;;;;;;;;5072579;28;20016;-71
2022/10/20 00:28:36;;;;;;;48.50;28.52;;;;;;;;;;5072548;28;20021;-71
2022/10/20 00:31:03;;;;;;;52.92;29.13;;;;;;;;;;5072653;28;20047;-70
2022/10/20 00:33:29;;;;;;;71.53;41.28;;;;;;;;;;5072175;28;20029;-71
2022/10/20 00:35:58;;;;;;;137.13;76.35;;;;;;;;;;5072439;28;20021;-70
2022/10/20 00:38:24;;;;;;;73.45;41.45;;;;;;;;;;5072583;28;20467;-70
2022/10/20 00:40:50;;;;;;;23.17;15.30;;;;;;;;;;5072388;28;20020;-71
2022/10/20 00:43:17;;;;;;;19.38;12.75;;;;;;;;;;5075818;28;20031;-71
2022/10/20 00:45:44;;;;;;;15.55;11.80;;;;;;;;;;5076547;28;20030;-71
2022/10/20 00:48:18;;;;;;;26.15;15.88;;;;;;;;;;5076509;28;20369;-73
2022/10/20 00:50:52;;;;;;;23.98;16.17;;;;;;;;;;5076538;28;20024;-71
2022/10/20 00:53:19;;;;;;;19.23;12.48;;;;;;;;;;5063233;28;20040;-73
2022/10/20 00:55:50;;;;;;;44.50;26.80;;;;;;;;;;5076492;28;20028;-70
2022/10/20 00:58:17;;;;;;;50.90;27.58;;;;;;;;;;5057628;28;20478;-70
2022/10/20 01:00:44;;;;;;;15.32;12.68;;;;;;;;;;5076245;28;20025;-71
2022/10/20 01:03:16;;;;;;;47.47;26.63;;;;;;;;;;5075954;28;20020;-71
2022/10/20 01:05:42;;;;;;;20.13;13.88;;;;;;;;;;5076251;28;20056;-70
2022/10/20 01:08:08;;;;;;;27.42;17.17;;;;;;;;;;5075920;28;20024;-71
2022/10/20 01:10:46;;;;;;;21.10;15.73;;;;;;;;;;5075909;28;20048;-73
2022/10/20 01:13:12;;;;;;;20.80;12.95;;;;;;;;;;5075944;28;20037;-73
2022/10/20 01:15:43;;;;;;;16.38;11.73;;;;;;;;;;5075899;28;20100;-70
2022/10/20 01:18:14;;;;;;;16.10;11.77;;;;;;;;;;5075939;28;20032;-72
2022/10/20 01:20:40;;;;;;;19.05;12.30;;;;;;;;;;5076101;28;20084;-73
2022/10/20 01:23:25;;;;;;;16.63;12.18;;;;;;;;;;5075724;28;20024;-73
2022/10/20 01:25:53;;;;;;;14.73;10.90;;;;;;;;;;5075773;28;20028;-71
2022/10/20 01:28:19;;;;;;;14.38;10.25;;;;;;;;;;5075447;28;20514;-71
2022/10/20 01:30:47;;;;;;;13.43;10.80;;;;;;;;;;5075886;28;20105;-70
2022/10/20 01:33:25;;;;;;;14.95;10.57;;;;;;;;;;5075525;28;20041;-74
2022/10/20 01:35:54;;;;;;;19.52;11.85;;;;;;;;;;5063071;28;20426;-70
2022/10/20 01:38:23;;;;;;;18.42;13.02;;;;;;;;;;5075595;28;20493;-70
2022/10/20 01:41:12;;;;;;;16.40;10.90;;;;;;;;;;5075215;28;20037;-70
2022/10/20 01:43:40;;;;;;;12.48;10.25;;;;;;;;;;5013671;28;20112;-70
2022/10/20 01:46:08;;;;;;;14.85;11.25;;;;;;;;;;5013484;28;20030;-70
2022/10/20 01:48:36;;;;;;;16.25;11.43;;;;;;;;;;5013692;28;20030;-70
2022/10/20 01:51:03;;;;;;;13.52;10.32;;;;;;;;;;5013439;28;20483;-70
2022/10/20 01:53:29;;;;;;;15.65;11.48;;;;;;;;;;5013221;28;20037;-70
2022/10/20 01:55:56;;;;;;;16.60;12.32;;;;;;;;;;5013229;28;20116;-70
2022/10/20 01:58:35;;;;;;;14.90;11.73;;;;;;;;;;5013340;28;20065;-70
2022/10/20 02:01:05;;;;;;;13.38;9.80;;;;;;;;;;5013248;28;20077;-71
2022/10/20 02:03:46;;;;;;;13.65;10.15;;;;;;;;;;5013384;28;20041;-70
2022/10/20 02:06:18;;;;;;;14.38;10.90;;;;;;;;;;5013049;28;20034;-70
2022/10/20 02:08:44;;;;;;;12.77;9.65;;;;;;;;;;5013064;28;20074;-70
2022/10/20 02:11:14;;;;;;;12.27;10.35;;;;;;;;;;5013029;28;20105;-70
2022/10/20 02:13:40;;;;;;;13.65;10.73;;;;;;;;;;5013044;28;20493;-70
2022/10/20 02:16:09;;;;;;;12.95;10.55;;;;;;;;;;5013151;28;20030;-70
2022/10/20 02:18:39;;;;;;;23.90;16.88;;;;;;;;;;5012841;28;20496;-70
2022/10/20 02:21:06;;;;;;;25.92;18.23;;;;;;;;;;5056226;28;20059;-70
2022/10/20 02:23:35;;;;;;;15.00;11.35;;;;;;;;;;5074631;28;20078;-70
2022/10/20 02:26:02;;;;;;;14.35;11.32;;;;;;;;;;5074683;28;20024;-70
2022/10/20 02:28:29;;;;;;;15.82;11.20;;;;;;;;;;5074891;28;20028;-70
2022/10/20 02:30:56;;;;;;;15.77;11.70;;;;;;;;;;5074628;28;20035;-70
2022/10/20 02:33:22;;;;;;;18.50;12.95;;;;;;;;;;5074832;28;20078;-70
2022/10/20 02:35:52;;;;;;;15.52;11.88;;;;;;;;;;5074538;28;20090;-71
2022/10/20 02:38:18;;;;;;;14.05;11.48;;;;;;;;;;5074521;28;20038;-71
2022/10/20 02:40:44;;;;;;;17.33;10.30;;;;;;;;;;5074731;28;20039;-70
2022/10/20 02:43:10;;;;;;;11.93;9.00;;;;;;;;;;5074857;28;20024;-73
2022/10/20 02:45:37;;;;;;;12.27;9.63;;;;;;;;;;5074493;28;20023;-73
2022/10/20 02:48:03;;;;;;;15.27;9.88;;;;;;;;;;5074045;28;20028;-71
2022/10/20 02:50:29;;;;;;;11.10;9.27;;;;;;;;;;5074192;28;20020;-70
2022/10/20 02:52:55;;;;;;;12.77;9.63;;;;;;;;;;5074061;28;20028;-70
2022/10/20 02:55:21;;;;;;;12.05;9.48;;;;;;;;;;5074063;28;20112;-72
2022/10/20 02:57:47;;;;;;;10.40;8.57;;;;;;;;;;5074057;28;20020;-72
2022/10/20 03:00:14;;;;;;;13.68;9.25;;;;;;;;;;5074110;28;20025;-72
2022/10/20 03:02:40;;;;;;;11.05;9.25;;;;;;;;;;5073863;28;20020;-73
2022/10/20 03:05:06;;;;;;;12.10;8.68;;;;;;;;;;5073421;28;20471;-73
2022/10/20 03:07:32;;;;;;;10.45;8.75;;;;;;;;;;5074209;28;20394;-72
2022/10/20 03:09:58;;;;;;;11.27;8.77;;;;;;;;;;5073545;28;20056;-73
2022/10/20 03:12:24;;;;;;;12.13;8.65;;;;;;;;;;5073739;28;20481;-73
2022/10/20 03:14:50;;;;;;;10.30;7.90;;;;;;;;;;5073648;28;20517;-73
2022/10/20 03:17:16;;;;;;;10.25;8.63;;;;;;;;;;5073730;28;20027;-73
2022/10/20 03:19:42;;;;;;;12.38;9.35;;;;;;;;;;5073976;28;20031;-73
2022/10/20 03:22:08;;;;;;;13.52;9.05;;;;;;;;;;5073805;28;20025;-73
2022/10/20 03:24:34;;;;;;;11.02;9.32;;;;;;;;;;5073509;28;20066;-73
2022/10/20 03:27:00;;;;;;;12.57;10.15;;;;;;;;;;5073488;28;20021;-70
2022/10/20 03:29:26;;;;;;;13.40;9.48;;;;;;;;;;5073451;28;20032;-70
2022/10/20 03:31:52;;;;;;;12.38;9.13;;;;;;;;;;5073249;28;20032;-72
2022/10/20 03:34:19;;;;;;;12.02;9.07;;;;;;;;;;5073298;28;20082;-70
2022/10/20 03:36:45;;;;;;;12.98;10.07;;;;;;;;;;5073427;28;20024;-73
2022/10/20 03:39:11;;;;;;;15.88;10.60;;;;;;;;;;5073251;28;20042;-70
2022/10/20 03:41:37;;;;;;;13.95;10.63;;;;;;;;;;5073203;28;20453;-70
2022/10/20 03:44:03;;;;;;;11.80;9.48;;;;;;;;;;5073046;28;20506;-70
2022/10/20 03:46:29;;;;;;;12.40;10.25;;;;;;;;;;5073207;28;20513;-70
2022/10/20 03:48:55;;;;;;;13.00;10.05;;;;;;;;;;5072841;28;20020;-70
2022/10/20 03:51:21;;;;;;;14.50;10.32;;;;;;;;;;5073118;28;20107;-73
2022/10/20 03:53:47;;;;;;;14.45;9.90;;;;;;;;;;5073092;28;20127;-71
2022/10/20 03:56:15;;;;;;;13.07;9.27;;;;;;;;;;5072744;28;20019;-71
2022/10/20 03:58:41;;;;;;;11.65;9.65;;;;;;;;;;5073074;28;20534;-71
2022/10/20 04:01:08;;;;;;;17.27;10.30;;;;;;;;;;5072690;28;20078;-72
2022/10/20 04:03:34;;;;;;;14.75;9.93;;;;;;;;;;5072943;28;20008;-73
2022/10/20 04:06:00;;;;;;;17.75;11.52;;;;;;;;;;5073091;28;20434;-70
2022/10/20 04:08:26;;;;;;;15.80;11.23;;;;;;;;;;5054792;28;20379;-71
2022/10/20 04:10:52;;;;;;;17.08;13.00;;;;;;;;;;5072559;28;20075;-70
2022/10/20 04:13:18;;;;;;;16.52;11.73;;;;;;;;;;5072552;28;20032;-71
2022/10/20 04:15:44;;;;;;;15.32;11.00;;;;;;;;;;5072965;28;20013;-71
2022/10/20 04:18:10;;;;;;;11.85;9.65;;;;;;;;;;5072124;28;20028;-70
2022/10/20 04:20:36;;;;;;;13.20;10.48;;;;;;;;;;5070619;28;20115;-70
2022/10/20 04:23:02;;;;;;;11.65;9.48;;;;;;;;;;5072709;28;20086;-70
2022/10/20 04:25:28;;;;;;;12.20;9.93;;;;;;;;;;5072451;28;20021;-70
2022/10/20 04:27:54;;;;;;;14.35;10.20;;;;;;;;;;5072649;28;20021;-72
2022/10/20 04:30:20;;;;;;;12.85;10.10;;;;;;;;;;5072537;28;20017;-72
2022/10/20 04:32:46;;;;;;;14.27;11.82;;;;;;;;;;5072532;28;20056;-72
2022/10/20 04:35:12;;;;;;;15.70;10.93;;;;;;;;;;5072308;28;20470;-72
2022/10/20 04:37:38;;;;;;;16.00;12.23;;;;;;;;;;5053782;28;20501;-72
2022/10/20 04:40:05;;;;;;;14.75;10.38;;;;;;;;;;5072726;28;20032;-72
2022/10/20 04:42:31;;;;;;;13.15;10.27;;;;;;;;;;5072408;28;20107;-72
2022/10/20 04:44:57;;;;;;;17.58;10.80;;;;;;;;;;5072499;28;20024;-72
2022/10/20 04:47:23;;;;;;;11.73;8.95;;;;;;;;;;5072423;28;20032;-72
2022/10/20 04:49:49;;;;;;;15.15;9.60;;;;;;;;;;5054551;28;20055;-72
2022/10/20 04:52:16;;;;;;;13.20;9.90;;;;;;;;;;5072772;28;20368;-72
2022/10/20 04:54:42;;;;;;;12.50;9.48;;;;;;;;;;5072756;28;20024;-72
2022/10/20 04:57:09;;;;;;;19.52;12.63;;;;;;;;;;5072518;28;20035;-72
2022/10/20 04:59:35;;;;;;;19.02;11.55;;;;;;;;;;5072279;28;20492;-72
2022/10/20 05:02:01;;;;;;;18.13;13.27;;;;;;;;;;5072893;28;20024;-72
2022/10/20 05:04:27;;;;;;;17.90;10.95;;;;;;;;;;5072105;28;20021;-72
2022/10/20 05:06:53;;;;;;;17.70;11.93;;;;;;;;;;5072573;28;20121;-72
2022/10/20 05:09:19;;;;;;;24.75;17.02;;;;;;;;;;5072034;28;20449;-71
2022/10/20 05:11:46;;;;;;;42.92;25.42;;;;;;;;;;5072051;28;20025;-72
2022/10/20 05:14:12;;;;;;;86.68;47.22;;;;;;;;;;5053565;28;20506;-72
2022/10/20 05:16:38;;;;;;;44.08;27.65;;;;;;;;;;5072540;28;20475;-71
2022/10/20 05:19:04;;;;;;;27.23;17.38;;;;;;;;;;5072127;28;20024;-72
2022/10/20 05:21:31;;;;;;;21.70;15.98;;;;;;;;;;5071864;28;20033;-72
2022/10/20 05:23:57;;;;;;;20.25;14.45;;;;;;;;;;5072300;28;20042;-72
2022/10/20 05:26:24;;;;;;;24.08;15.65;;;;;;;;;;5072068;28;20020;-70
2022/10/20 05:28:50;;;;;;;24.60;16.08;;;;;;;;;;5055693;28;20033;-71
2022/10/20 05:31:18;;;;;;;19.42;13.52;;;;;;;;;;5075674;28;20025;-72
2022/10/20 05:33:49;;;;;;;18.42;12.52;;;;;;;;;;5075595;28;20037;-72
2022/10/20 05:36:18;;;;;;;18.17;13.68;;;;;;;;;;5075587;28;20382;-71
2022/10/20 05:38:44;;;;;;;15.00;11.15;;;;;;;;;;5075531;28;20032;-73
2022/10/20 05:41:14;;;;;;;16.85;12.02;;;;;;;;;;5075525;28;20035;-72
2022/10/20 05:43:41;;;;;;;17.38;11.85;;;;;;;;;;5076016;28;20025;-73
2022/10/20 05:46:07;;;;;;;24.90;20.13;;;;;;;;;;5075627;28;20379;-73
2022/10/20 05:48:34;;;;;;;19.13;13.23;;;;;;;;;;5075464;28;20020;-72
2022/10/20 05:51:19;;;;;;;17.13;12.07;;;;;;;;;;5075442;28;20061;-72
2022/10/20 05:53:46;;;;;;;18.05;14.40;;;;;;;;;;5075247;28;20112;-73
2022/10/20 05:56:13;;;;;;;23.30;15.70;;;;;;;;;;5075019;28;20032;-72
2022/10/20 05:58:39;;;;;;;58.55;36.95;;;;;;;;;;5075104;28;20025;-72
2022/10/20 06:01:05;;;;;;;71.32;43.55;;;;;;;;;;5075047;28;20096;-72
2022/10/20 06:03:31;;;;;;;51.05;31.48;;;;;;;;;;5074903;28;20021;-73
2022/10/20 06:05:58;;;;;;;39.60;28.35;;;;;;;;;;5075199;28;20024;-72
2022/10/20 06:08:25;;;;;;;35.25;21.52;;;;;;;;;;5074907;28;20047;-72
2022/10/20 06:10:51;;;;;;;33.53;21.65;;;;;;;;;;5074841;28;20044;-72
2022/10/20 06:13:17;;;;;;;41.97;28.17;;;;;;;;;;5074695;28;20396;-72
2022/10/20 06:15:45;;;;;;;33.00;22.55;;;;;;;;;;5074992;28;20016;-73
2022/10/20 06:18:11;;;;;;;36.78;21.23;;;;;;;;;;5074737;28;20378;-72
2022/10/20 06:20:37;;;;;;;40.25;26.73;;;;;;;;;;5056323;28;20360;-72
2022/10/20 06:23:03;;;;;;;26.70;17.80;;;;;;;;;;5074944;28;20467;-72
2022/10/20 06:25:29;;;;;;;66.28;37.80;;;;;;;;;;5074516;28;20028;-72
2022/10/20 06:27:55;;;;;;;64.43;34.47;;;;;;;;;;5074764;28;20043;-72
2022/10/20 06:30:21;;;;;;;31.30;21.45;;;;;;;;;;5074698;28;20446;-72
2022/10/20 06:32:47;;;;;;;22.45;14.63;;;;;;;;;;5074420;28;20503;-72
2022/10/20 06:35:13;;;;;;;22.17;13.68;;;;;;;;;;5074632;28;20393;-72
2022/10/20 06:37:39;;;;;;;17.88;11.68;;;;;;;;;;5056744;28;20033;-72
2022/10/20 06:40:05;;;;;;;17.15;9.98;;;;;;;;;;5073946;28;20037;-72
2022/10/20 06:42:31;;;;;;;15.77;10.57;;;;;;;;;;5074227;28;20021;-73
2022/10/20 06:44:58;;;;;;;19.85;9.77;;;;;;;;;;5074524;28;20108;-72
2022/10/20 06:47:24;;;;;;;13.90;8.55;;;;;;;;;;5074135;28;20099;-72
2022/10/20 06:49:50;;;;;;;14.25;7.40;;;;;;;;;;5072366;28;20506;-72
2022/10/20 06:52:16;;;;;;;12.10;6.72;;;;;;;;;;5074238;28;20032;-72
2022/10/20 06:54:42;;;;;;;12.18;6.82;;;;;;;;;;5074255;28;20051;-72
2022/10/20 06:57:08;;;;;;;10.13;6.43;;;;;;;;;;5074056;28;20059;-73
2022/10/20 06:59:34;;;;;;;17.35;6.57;;;;;;;;;;5074136;28;20028;-73
2022/10/20 07:02:00;;;;;;;9.55;6.30;;;;;;;;;;5074170;28;20021;-73
2022/10/20 07:04:26;;;;;;;8.45;5.93;;;;;;;;;;5073950;28;20532;-73
2022/10/20 07:06:52;;;;;;;16.05;7.00;;;;;;;;;;5074107;28;20032;-73
2022/10/20 07:09:19;;;;;;;37.88;22.48;;;;;;;;;;5073764;28;20105;-72
2022/10/20 07:11:49;;;;;;;12.48;8.65;;;;;;;;;;5073719;28;20027;-72
2022/10/20 07:14:15;;;;;;;22.60;7.68;;;;;;;;;;5055365;28;20403;-72
2022/10/20 07:16:41;;;;;;;12.63;6.95;;;;;;;;;;5073661;28;20437;-73
2022/10/20 07:19:07;;;;;;;28.02;8.82;;;;;;;;;;5073697;28;20059;-72
2022/10/20 07:21:35;;;;;;;11.25;6.53;;;;;;;;;;5073587;28;20055;-72
2022/10/20 07:24:02;;;;;;;13.95;7.30;;;;;;;;;;5072003;28;20491;-73
2022/10/20 07:26:29;;;;;;;26.67;9.52;;;;;;;;;;5073416;28;20057;-73
2022/10/20 07:28:56;;;;;;;9.60;7.38;;;;;;;;;;5073691;28;20024;-72
2022/10/20 07:31:27;;;;;;;11.80;6.10;;;;;;;;;;5073410;28;20032;-71
2022/10/20 07:33:54;;;;;;;10.27;6.82;;;;;;;;;;5072997;28;20040;-72
2022/10/20 07:36:22;;;;;;;11.35;6.95;;;;;;;;;;5073245;28;20045;-72
2022/10/20 07:38:49;;;;;;;12.18;6.57;;;;;;;;;;5055377;28;20379;-73
2022/10/20 07:41:15;;;;;;;14.35;8.45;;;;;;;;;;5073037;28;20028;-72
2022/10/20 07:43:41;;;;;;;10.68;7.13;;;;;;;;;;5073305;28;20052;-71
2022/10/20 07:46:08;;;;;;;20.40;10.40;;;;;;;;;;5073574;28;20017;-72
2022/10/20 07:48:34;;;;;;;13.98;7.93;;;;;;;;;;5073517;28;20021;-72
2022/10/20 07:51:19;;;;;;;18.83;9.15;;;;;;;;;;5072909;28;20025;-72
2022/10/20 07:53:45;;;;;;;11.38;7.70;;;;;;;;;;5072874;28;20039;-71
2022/10/20 07:56:11;;;;;;;14.30;8.30;;;;;;;;;;5072560;28;20020;-72
2022/10/20 07:58:37;;;;;;;11.75;7.50;;;;;;;;;;5072805;28;20096;-74
2022/10/20 08:01:04;;;;;;;15.93;7.55;;;;;;;;;;5072621;28;20127;-73
2022/10/20 08:03:30;;;;;;;27.83;10.88;;;;;;;;;;5072992;28;20030;-72
2022/10/20 08:05:56;;;;;;;17.20;8.88;;;;;;;;;;5072785;28;20044;-71
2022/10/20 08:08:22;;;;;;;7.50;5.50;;;;;;;;;;5072542;28;20078;-71
2022/10/20 08:10:48;;;;;;;10.13;5.75;;;;;;;;;;5073017;28;20048;-73
2022/10/20 08:13:14;;;;;;;11.85;6.07;;;;;;;;;;5072453;28;20033;-73
2022/10/20 08:15:42;;;;;;;8.90;5.95;;;;;;;;;;5072729;28;20027;-73
2022/10/20 08:18:08;;;;;;;9.35;5.35;;;;;;;;;;5072561;28;20033;-73
2022/10/20 08:20:34;;;;;;;5.90;4.78;;;;;;;;;;5072763;28;20463;-75
2022/10/20 08:23:00;;;;;;;7.97;4.70;;;;;;;;;;5072763;28;20505;-74
2022/10/20 08:25:26;;;;;;;6.47;5.82;;;;;;;;;;5072418;28;20013;-73
2022/10/20 08:27:53;;;;;;;9.35;5.85;;;;;;;;;;5072807;28;20386;-73
2022/10/20 08:30:19;;;;;;;8.85;5.43;;;;;;;;;;5072422;28;20027;-73
2022/10/20 08:32:45;;;;;;;9.57;5.35;;;;;;;;;;5072497;28;20406;-73
2022/10/20 08:35:11;;;;;;;7.70;5.82;;;;;;;;;;5072562;28;20482;-73
2022/10/20 08:37:37;;;;;;;11.20;5.78;;;;;;;;;;5072631;28;20021;-73
2022/10/20 08:40:04;;;;;;;11.90;7.95;;;;;;;;;;5073031;28;20033;-73
2022/10/20 08:42:35;;;;;;;13.63;6.30;;;;;;;;;;5072260;28;20457;-73
2022/10/20 08:45:01;;;;;;;5.82;4.72;;;;;;;;;;5072356;28;20029;-73
2022/10/20 08:47:29;;;;;;;16.58;6.45;;;;;;;;;;5072216;28;20073;-72
2022/10/20 08:49:56;;;;;;;8.75;5.72;;;;;;;;;;5072357;28;20489;-73
2022/10/20 08:52:23;;;;;;;10.07;5.70;;;;;;;;;;5072383;28;20028;-72
2022/10/20 08:54:52;;;;;;;8.93;5.97;;;;;;;;;;5072496;28;20051;-72
2022/10/20 08:57:21;;;;;;;10.73;5.10;;;;;;;;;;5072642;28;20479;-73
2022/10/20 08:59:50;;;;;;;11.73;6.72;;;;;;;;;;5072050;28;20070;-72
2022/10/20 09:02:17;;;;;;;10.25;6.90;;;;;;;;;;5072073;28;20145;-72
2022/10/20 09:04:47;;;;;;;14.60;7.57;;;;;;;;;;5075985;28;20060;-72
2022/10/20 09:07:25;;;;;;;8.85;4.90;;;;;;;;;;5076316;28;20028;-72
2022/10/20 09:09:52;;;;;;;11.20;5.93;;;;;;;;;;5075872;28;20052;-72
2022/10/20 09:12:19;;;;;;;7.97;5.38;;;;;;;;;;5075940;28;20017;-72
2022/10/20 09:14:45;;;;;;;13.45;5.72;;;;;;;;;;5075930;28;20835;-71
2022/10/20 09:17:15;;;;;;;11.27;7.28;;;;;;;;;;5075928;28;20360;-71
2022/10/20 09:19:43;;;;;;;8.60;5.15;;;;;;;;;;5075995;28;20486;-72
2022/10/20 09:22:11;;;;;;;6.93;5.07;;;;;;;;;;5075961;28;20162;-72
2022/10/20 09:24:38;;;;;;;9.63;4.75;;;;;;;;;;5075724;28;20024;-72
2022/10/20 09:27:18;;;;;;;14.57;5.88;;;;;;;;;;5075393;28;20021;-72
2022/10/20 09:29:47;;;;;;;9.77;5.37;;;;;;;;;;5075632;28;20027;-72
2022/10/20 09:32:18;;;;;;;7.93;5.18;;;;;;;;;;5075546;28;20272;-72
2022/10/20 09:34:44;;;;;;;12.07;7.05;;;;;;;;;;5075633;28;20107;-72
2022/10/20 09:37:11;;;;;;;14.77;6.70;;;;;;;;;;5075389;28;20027;-72
2022/10/20 09:39:46;;;;;;;9.45;5.63;;;;;;;;;;5075782;28;20024;-72
2022/10/20 09:42:19;;;;;;;10.95;5.28;;;;;;;;;;5075515;28;20029;-72
2022/10/20 09:44:56;;;;;;;8.30;5.47;;;;;;;;;;5075378;28;20021;-72
2022/10/20 09:47:23;;;;;;;8.82;5.05;;;;;;;;;;5074059;28;20032;-72
2022/10/20 09:50:03;;;;;;;11.57;5.95;;;;;;;;;;5075282;28;20074;-74
2022/10/20 09:52:33;;;;;;;14.75;12.70;;;;;;;;;;5074819;28;20490;-72
2022/10/20 09:55:19;;;;;;;15.85;9.93;;;;;;;;;;5075181;28;20046;-72
2022/10/20 09:57:48;;;;;;;10.80;5.95;;;;;;;;;;5057067;28;20504;-72
2022/10/20 10:00:31;;;;;;;9.98;5.03;;;;;;;;;;5075281;28;20054;-72
2022/10/20 10:03:20;;;;;;;9.10;4.88;;;;;;;;;;5074820;28;20024;-72
2022/10/20 10:05:48;;;;;;;7.32;4.88;;;;;;;;;;5075378;28;20490;-72
2022/10/20 10:08:14;;;;;;;6.97;4.97;;;;;;;;;;5075018;28;20039;-72
2022/10/20 10:10:40;;;;;;;8.57;7.15;;;;;;;;;;5074715;28;20398;-72
2022/10/20 10:13:20;;;;;;;11.68;7.43;;;;;;;;;;5074521;28;20097;-71
2022/10/20 10:15:46;;;;;;;11.88;6.63;;;;;;;;;;5073486;28;20104;-72
2022/10/20 10:18:14;;;;;;;22.27;7.68;;;;;;;;;;5074638;28;20032;-72
2022/10/20 10:20:40;;;;;;;8.45;4.75;;;;;;;;;;5074620;28;20023;-72
2022/10/20 10:23:22;;;;;;;9.88;5.22;;;;;;;;;;5074553;28;20028;-72
2022/10/20 10:25:49;;;;;;;8.65;5.82;;;;;;;;;;5074583;28;20082;-72
2022/10/20 10:28:29;;;;;;;14.02;9.85;;;;;;;;;;5074224;28;20124;-72
2022/10/20 10:31:05;;;;;;;10.83;5.67;;;;;;;;;;5074409;28;20095;-72
2022/10/20 10:33:34;;;;;;;7.18;5.55;;;;;;;;;;5074078;28;20028;-74
2022/10/20 10:36:06;;;;;;;6.40;5.55;;;;;;;;;;5074488;28;20013;-72
2022/10/20 10:38:32;;;;;;;97.63;17.23;;;;;;;;;;5074196;28;20024;-73
2022/10/20 10:41:07;;;;;;;23.55;7.20;;;;;;;;;;5074347;28;20024;-72
2022/10/20 10:43:33;;;;;;;8.95;5.10;;;;;;;;;;5074501;28;20032;-74
2022/10/20 10:46:06;;;;;;;8.57;6.32;;;;;;;;;;5074261;28;20025;-73
2022/10/20 10:48:32;;;;;;;8.10;5.00;;;;;;;;;;5074162;28;20100;-75
2022/10/20 10:50:59;;;;;;;10.48;5.57;;;;;;;;;;5074184;28;20024;-75
2022/10/20 10:53:34;;;;;;;11.70;5.30;;;;;;;;;;5074126;28;20040;-74
2022/10/20 10:56:19;;;;;;;6.10;4.55;;;;;;;;;;5073982;28;20020;-75
2022/10/20 10:58:45;;;;;;;7.47;5.38;;;;;;;;;;5073951;28;20020;-75
2022/10/20 11:01:11;;;;;;;9.05;4.95;;;;;;;;;;5073902;28;20095;-76
2022/10/20 11:03:56;;;;;;;10.02;6.53;;;;;;;;;;5072724;28;20032;-74
2022/10/20 11:06:25;;;;;;;8.05;6.10;;;;;;;;;;5073716;28;20035;-75
2022/10/20 11:08:54;;;;;;;7.63;5.22;;;;;;;;;;5073654;28;20107;-74
2022/10/20 11:11:27;;;;;;;6.68;5.53;;;;;;;;;;5073807;28;20383;-73
2022/10/20 11:14:06;;;;;;;6.10;5.03;;;;;;;;;;5073500;28;20036;-73
2022/10/20 11:16:32;;;;;;;6.13;3.80;;;;;;;;;;5073412;28;20036;-74
2022/10/20 11:19:01;;;;;;;8.13;6.75;;;;;;;;;;5073862;28;20060;-75
2022/10/20 11:21:36;;;;;;;7.00;5.03;;;;;;;;;;5073596;28;20017;-73
2022/10/20 11:24:21;;;;;;;16.23;5.95;;;;;;;;;;5073497;28;20021;-74
2022/10/20 11:26:52;;;;;;;8.23;5.20;;;;;;;;;;5072757;28;20025;-73
2022/10/20 11:30:03;;;;;;;8.43;5.85;;;;;;;;;;5073381;28;20016;-74
2022/10/20 11:32:29;;;;;;;8.10;5.88;;;;;;;;;;4992017;28;20034;-74
2022/10/20 11:35:01;;;;;;;10.20;5.95;;;;;;;;;;4992120;28;20385;-73
2022/10/20 11:37:28;;;;;;;6.75;5.25;;;;;;;;;;4991698;28;20108;-73
2022/10/20 11:39:54;;;;;;;7.00;4.78;;;;;;;;;;4991806;28;20454;-74
2022/10/20 11:42:20;;;;;;;5.60;4.97;;;;;;;;;;4991652;28;20058;-75
2022/10/20 11:44:47;;;;;;;8.10;5.28;;;;;;;;;;4991767;28;20058;-74
2022/10/20 11:47:17;;;;;;;8.38;5.13;;;;;;;;;;4974853;28;20045;-74
2022/10/20 11:49:43;;;;;;;11.33;5.93;;;;;;;;;;4991436;28;20035;-75
2022/10/20 11:52:18;;;;;;;5.80;5.28;;;;;;;;;;4991516;28;20714;-74
2022/10/20 11:54:52;;;;;;;7.97;5.30;;;;;;;;;;4991546;28;20038;-75
2022/10/20 11:57:30;;;;;;;7.20;5.45;;;;;;;;;;4991436;28;20088;-74
2022/10/20 12:00:03;;;;;;;7.20;4.85;;;;;;;;;;4991732;28;20037;-74
2022/10/20 12:02:29;;;;;;;7.07;5.78;;;;;;;;;;5010844;28;20037;-74
2022/10/20 12:05:07;;;;;;;10.68;7.05;;;;;;;;;;5055067;28;20045;-75
2022/10/20 12:07:43;;;;;;;10.10;6.32;;;;;;;;;;5054657;28;20040;-74
2022/10/20 12:10:20;;;;;;;12.05;6.88;;;;;;;;;;5072334;28;20503;-74
2022/10/20 12:12:58;;;;;;;7.40;5.95;;;;;;;;;;5072625;28;20138;-75
2022/10/20 12:15:26;;;;;;;5.97;5.28;;;;;;;;;;5059624;28;20024;-74
2022/10/20 12:18:06;;;;;;;10.73;5.90;;;;;;;;;;5072623;28;20028;-74
2022/10/20 12:20:35;;;;;;;10.07;6.17;;;;;;;;;;5059831;28;20024;-74
2022/10/20 12:23:01;;;;;;;10.98;4.97;;;;;;;;;;5072606;28;20107;-74
2022/10/20 12:25:30;;;;;;;12.05;9.95;;;;;;;;;;5072741;28;20028;-74
2022/10/20 12:28:15;;;;;;;6.40;5.57;;;;;;;;;;5072329;28;20024;-73
2022/10/20 12:30:43;;;;;;;7.88;5.53;;;;;;;;;;5059225;28;20329;-75
2022/10/20 12:33:16;;;;;;;7.20;5.85;;;;;;;;;;5072387;28;20050;-74
2022/10/20 12:35:58;;;;;;;11.27;6.30;;;;;;;;;;5058375;28;20415;-75
2022/10/20 12:38:25;;;;;;;6.53;5.85;;;;;;;;;;5071544;28;20471;-75
2022/10/20 12:40:54;;;;;;;8.02;6.30;;;;;;;;;;5072397;28;20071;-74
2022/10/20 12:43:28;;;;;;;9.20;8.30;;;;;;;;;;5072381;28;20021;-75
2022/10/20 12:45:57;;;;;;;12.77;10.00;;;;;;;;;;5072340;28;20052;-74
2022/10/20 12:48:26;;;;;;;13.70;5.97;;;;;;;;;;5072493;28;20497;-75
2022/10/20 12:50:53;;;;;;;10.13;6.47;;;;;;;;;;5072047;28;20032;-75
2022/10/20 12:53:22;;;;;;;9.30;5.45;;;;;;;;;;5072326;28;20045;-74
2022/10/20 12:55:55;;;;;;;9.68;6.20;;;;;;;;;;5072435;28;20020;-74
2022/10/20 12:58:21;;;;;;;11.23;6.80;;;;;;;;;;5072214;28;20024;-74
2022/10/20 13:00:50;;;;;;;9.18;5.80;;;;;;;;;;5072669;28;20025;-74
2022/10/20 13:03:31;;;;;;;8.93;7.50;;;;;;;;;;5072048;28;20486;-75
2022/10/20 13:06:01;;;;;;;11.50;6.53;;;;;;;;;;5072389;28;20029;-74
2022/10/20 13:08:29;;;;;;;7.30;6.13;;;;;;;;;;5071932;28;20023;-74
2022/10/20 13:10:55;;;;;;;10.55;6.55;;;;;;;;;;5072093;28;20040;-74
2022/10/20 13:13:21;;;;;;;8.85;6.93;;;;;;;;;;5071587;28;20028;-74
2022/10/20 13:15:53;;;;;;;6.55;5.57;;;;;;;;;;5071985;28;20108;-74
2022/10/20 13:18:31;;;;;;;8.85;6.57;;;;;;;;;;5071777;28;20483;-74
2022/10/20 13:20:57;;;;;;;8.68;6.05;;;;;;;;;;5072097;28;20031;-74
2022/10/20 13:23:29;;;;;;;13.10;7.35;;;;;;;;;;5072024;28;20095;-74
2022/10/20 13:25:56;;;;;;;13.57;6.68;;;;;;;;;;5071804;28;20021;-75
2022/10/20 13:28:23;;;;;;;14.50;8.35;;;;;;;;;;5071747;28;20025;-75
2022/10/20 13:30:53;;;;;;;11.82;6.95;;;;;;;;;;5069806;28;20120;-73
2022/10/20 13:33:28;;;;;;;10.77;7.88;;;;;;;;;;5071602;28;20119;-73
2022/10/20 13:36:03;;;;;;;11.23;7.07;;;;;;;;;;5071881;28;20078;-74
2022/10/20 13:38:38;;;;;;;7.63;5.82;;;;;;;;;;5071715;28;20021;-74
2022/10/20 13:41:15;;;;;;;8.48;6.55;;;;;;;;;;5071527;28;20016;-74
2022/10/20 13:43:52;;;;;;;9.73;7.05;;;;;;;;;;5071981;28;20379;-74
2022/10/20 13:46:21;;;;;;;20.73;15.00;;;;;;;;;;5071672;28;20090;-74
2022/10/20 13:48:59;;;;;;;14.23;6.70;;;;;;;;;;5072304;28;20020;-74
2022/10/20 13:51:31;;;;;;;9.38;6.32;;;;;;;;;;5075243;28;20020;-74
2022/10/20 13:53:59;;;;;;;8.90;6.40;;;;;;;;;;5075102;28;20078;-73
2022/10/20 13:56:29;;;;;;;9.95;7.00;;;;;;;;;;5075314;28;20009;-73
2022/10/20 13:58:59;;;;;;;9.57;7.28;;;;;;;;;;5075331;28;20089;-74
2022/10/20 14:01:26;;;;;;;10.27;6.23;;;;;;;;;;5075455;28;20012;-73
2022/10/20 14:03:52;;;;;;;7.38;5.93;;;;;;;;;;5074882;28;20276;-73
2022/10/20 14:06:27;;;;;;;8.20;5.40;;;;;;;;;;5074933;28;20031;-74
2022/10/20 14:08:54;;;;;;;15.43;7.38;;;;;;;;;;5074764;28;20089;-73
2022/10/20 14:11:20;;;;;;;11.90;9.98;;;;;;;;;;5074891;28;20039;-73
2022/10/20 14:13:46;;;;;;;9.90;8.63;;;;;;;;;;5074757;28;20033;-74
2022/10/20 14:16:16;;;;;;;21.55;15.05;;;;;;;;;;5075316;28;20024;-74
2022/10/20 14:18:42;;;;;;;13.63;10.45;;;;;;;;;;5074859;28;20051;-74
2022/10/20 14:21:16;;;;;;;24.55;14.35;;;;;;;;;;5074845;28;20668;-73
2022/10/20 14:23:43;;;;;;;145.98;91.65;;;;;;;;;;5074707;28;20478;-74
2022/10/20 14:26:17;;;;;;;29.92;20.08;;;;;;;;;;5074869;28;20499;-73
2022/10/20 14:28:43;;;;;;;48.38;32.15;;;;;;;;;;5074431;28;20467;-73
2022/10/20 14:31:11;;;;;;;19.25;13.85;;;;;;;;;;5074878;28;20024;-73
2022/10/20 14:33:40;;;;;;;16.17;8.18;;;;;;;;;;5074319;28;20040;-73
2022/10/20 14:36:13;;;;;;;20.85;11.80;;;;;;;;;;5074694;28;20022;-73
2022/10/20 14:38:39;;;;;;;59.58;34.58;;;;;;;;;;5074291;28;20115;-73